New Rooks County (RCP)
Stockton, KS
Field Elevation: 1999
Lat: 39°20.80N  Long: 99°18.28W
CTAF/Unicom Freq: 122.9000
   
    
Weather Advisories
2017-12-11   18:37 Z
Altimeter 30.15" Hg
Wind 310° @ 19 KT
Gusts 27 KT
Visibility 10 SM
Temperature 15° C (59° F)
Dewpoint -10° C (14° F)
Relative Humidity 17%
Density Altitude --
Condensation Altitude 14,500 feet
Wind and Runways
Indicated Runway = 36
Headwind = 12 kt
Crosswind = 15 kt
History
 
 
 
More Info
All DigiWx sites map
NOAA Forecast
 
Airport IQ 5010
(FLV) Sherman Airfield
(K68) Garnett Municipal Airport
 
about DigiWx
 
FAA Disclaimer: The data displayed is for advisory purposes only and is not to be used for flight planning or operations. For official data, please call (not available) to hear the current automated AWOS voice message.
  METAR RCP 111837Z AUTO 31019G27KT VIS 10 SM 15/M10 A3015